Time;durP1;ratioP1;P1;durP2;ratioP2;P2;SDS_P1;SDS_P2;PMS_P1;PMS_P2;Temp;Humidity;BMP_temperature;BMP_pressure;BME280_temperature;BME280_humidity;BME280_pressure;Samples;Min_cycle;Max_cycle;Signal;HPM_P1;HPM_P2
2021/12/12 00:00:44;;;;;;;111.10;39.20;;;-0.30;99.90;;;;;;4361598;28;661200;-63
2021/12/12 00:03:37;;;;;;;124.90;45.90;;;-0.30;99.90;;;;;;4360232;28;660078;-63
2021/12/12 00:06:28;;;;;;;125.97;45.43;;;-0.30;99.90;;;;;;4373602;28;659796;-62
2021/12/12 00:09:18;;;;;;;133.60;45.73;;;-0.30;99.90;;;;;;4353180;28;660025;-64
2021/12/12 00:12:08;;;;;;;123.17;43.37;;;-0.40;99.90;;;;;;4379543;28;659780;-63
2021/12/12 00:14:56;;;;;;;126.43;48.13;;;-0.30;99.90;;;;;;4387465;28;659964;-64
2021/12/12 00:17:45;;;;;;;123.93;46.33;;;-0.30;99.90;;;;;;4397598;28;661030;-63
2021/12/12 00:20:33;;;;;;;119.33;44.77;;;-0.30;99.90;;;;;;4360972;28;660946;-63
2021/12/12 00:23:21;;;;;;;117.70;46.27;;;-0.20;99.90;;;;;;4387799;28;659553;-64
2021/12/12 00:26:08;;;;;;;123.97;46.27;;;-0.20;99.90;;;;;;4407624;28;660195;-63
2021/12/12 00:28:56;;;;;;;134.63;48.43;;;-0.20;99.90;;;;;;4386897;28;659640;-63
2021/12/12 00:31:44;;;;;;;130.60;43.73;;;-0.20;99.90;;;;;;4399298;28;660522;-63
2021/12/12 00:34:35;;;;;;;124.90;45.00;;;-0.20;99.90;;;;;;4367647;28;660222;-63
2021/12/12 00:37:23;;;;;;;127.00;46.63;;;-0.20;99.90;;;;;;4358051;28;660620;-63
2021/12/12 00:40:16;;;;;;;128.10;45.87;;;-0.20;99.90;;;;;;4374083;28;662031;-63
2021/12/12 00:43:08;;;;;;;127.93;45.60;;;-0.20;99.90;;;;;;4386008;28;660602;-63
2021/12/12 00:45:57;;;;;;;123.03;45.13;;;-0.20;99.90;;;;;;4375647;28;660035;-64
2021/12/12 00:48:46;;;;;;;107.80;40.40;;;-0.20;99.90;;;;;;4399937;28;659613;-64
2021/12/12 00:51:37;;;;;;;116.27;43.13;;;-0.20;99.90;;;;;;4388004;28;660938;-63
2021/12/12 00:54:30;;;;;;;111.77;41.40;;;-0.30;99.90;;;;;;4376149;28;659762;-63
2021/12/12 00:57:21;;;;;;;101.03;36.47;;;-0.30;99.90;;;;;;4354094;28;660572;-63
2021/12/12 01:00:10;;;;;;;90.67;34.13;;;-0.30;99.90;;;;;;4382330;28;659969;-63
2021/12/12 01:02:58;;;;;;;102.37;36.37;;;-0.30;99.90;;;;;;4378416;28;660339;-63
2021/12/12 01:05:46;;;;;;;107.77;38.20;;;-0.30;99.90;;;;;;4381220;28;659806;-64
2021/12/12 01:08:35;;;;;;;95.17;35.23;;;-0.30;99.90;;;;;;4386504;28;661172;-64
2021/12/12 01:11:25;;;;;;;102.83;36.87;;;-0.30;99.90;;;;;;4369453;28;659642;-63
2021/12/12 01:14:15;;;;;;;103.97;36.87;;;-0.40;99.90;;;;;;4369571;28;660031;-63
2021/12/12 01:17:05;;;;;;;94.07;36.43;;;-0.40;99.90;;;;;;4382362;28;661134;-63
2021/12/12 01:19:56;;;;;;;95.53;36.27;;;-0.40;99.90;;;;;;4385071;28;659634;-64
2021/12/12 01:22:44;;;;;;;97.13;37.27;;;-0.40;99.90;;;;;;4366823;28;659362;-63
2021/12/12 01:25:34;;;;;;;96.05;37.30;;;-0.30;99.90;;;;;;4379836;28;658297;-64
2021/12/12 01:28:24;;;;;;;107.77;38.77;;;-0.30;99.90;;;;;;4374688;28;658520;-63
2021/12/12 01:31:13;;;;;;;106.10;38.97;;;-0.20;99.90;;;;;;4362342;28;660590;-63
2021/12/12 01:34:10;;;;;;;112.37;39.67;;;-0.20;99.90;;;;;;4360197;28;661482;-64
2021/12/12 01:37:10;;;;;;;118.50;40.90;;;-0.20;99.90;;;;;;4319957;28;660153;-63
2021/12/12 01:39:59;;;;;;;103.33;36.03;;;-0.10;99.90;;;;;;4345237;28;660247;-63
2021/12/12 01:42:51;;;;;;;115.13;40.47;;;-0.20;99.90;;;;;;4365070;28;660895;-64
2021/12/12 01:45:44;;;;;;;110.43;40.73;;;-0.20;99.90;;;;;;4375660;28;660829;-64
2021/12/12 01:48:35;;;;;;;104.13;40.23;;;-0.20;99.90;;;;;;4338811;28;660107;-63
2021/12/12 01:51:23;;;;;;;118.20;45.17;;;-0.20;99.90;;;;;;4366243;28;660494;-63
2021/12/12 01:54:11;;;;;;;117.63;45.03;;;-0.20;99.90;;;;;;4372650;28;659875;-64
2021/12/12 01:57:00;;;;;;;125.27;45.00;;;-0.20;99.90;;;;;;4398579;28;660348;-63
2021/12/12 01:59:49;;;;;;;128.23;46.13;;;-0.20;99.90;;;;;;4371936;28;660659;-64
2021/12/12 02:02:37;;;;;;;127.20;44.60;;;-0.20;99.90;;;;;;4356189;28;660038;-64
2021/12/12 02:05:26;;;;;;;127.57;46.30;;;-0.20;99.90;;;;;;4375909;28;659448;-63
2021/12/12 02:08:15;;;;;;;126.03;45.70;;;-0.30;99.90;;;;;;4352111;28;660052;-63
2021/12/12 02:11:05;;;;;;;117.13;44.37;;;-0.30;99.90;;;;;;4353299;28;660572;-64
2021/12/12 02:13:54;;;;;;;124.03;46.03;;;-0.30;99.90;;;;;;4380390;28;660587;-63
2021/12/12 02:16:46;;;;;;;128.67;47.03;;;-0.30;99.90;;;;;;4366949;28;660327;-63
2021/12/12 02:19:42;;;;;;;136.83;47.17;;;-0.30;99.90;;;;;;4365501;28;660505;-63
2021/12/12 02:22:49;;;;;;;126.53;46.80;;;-0.30;99.90;;;;;;4365553;28;659319;-63
2021/12/12 02:35:15;;;;;;;120.17;42.87;;;-0.30;99.90;;;;;;4345212;28;660027;-64
2021/12/12 02:38:06;;;;;;;120.20;43.03;;;-0.30;99.90;;;;;;4326356;28;661053;-64
2021/12/12 02:41:00;;;;;;;114.07;44.27;;;-0.30;99.90;;;;;;4348313;28;659622;-64
2021/12/12 02:43:56;;;;;;;125.57;46.20;;;-0.30;99.90;;;;;;4349019;28;660232;-63
2021/12/12 02:46:45;;;;;;;122.77;45.57;;;-0.30;99.90;;;;;;4348160;28;659783;-63
2021/12/12 02:49:40;;;;;;;124.97;46.53;;;-0.40;99.90;;;;;;4349118;28;660741;-64
2021/12/12 02:52:29;;;;;;;124.73;44.50;;;-0.40;99.90;;;;;;4349682;28;660351;-64
2021/12/12 02:55:21;;;;;;;129.20;46.40;;;-0.30;99.90;;;;;;4345862;28;660400;-63
2021/12/12 02:58:10;;;;;;;119.13;45.07;;;-0.40;99.90;;;;;;4352751;28;660684;-64
2021/12/12 03:01:03;;;;;;;126.17;46.77;;;-0.30;99.90;;;;;;4373255;28;660329;-64
2021/12/12 03:03:51;;;;;;;122.40;44.70;;;-0.40;99.90;;;;;;4333606;28;659598;-64
2021/12/12 03:06:40;;;;;;;121.77;45.00;;;-0.30;99.90;;;;;;4390479;28;661620;-64
2021/12/12 03:09:29;;;;;;;128.77;45.60;;;-0.40;99.90;;;;;;4361861;28;660348;-64
2021/12/12 03:12:20;;;;;;;129.50;45.10;;;-0.40;99.90;;;;;;4377961;28;660150;-64
2021/12/12 03:15:09;;;;;;;121.77;44.17;;;-0.40;99.90;;;;;;4367380;28;660761;-63
2021/12/12 03:17:58;;;;;;;115.17;44.47;;;-0.40;99.90;;;;;;4375951;28;660527;-63
2021/12/12 03:20:48;;;;;;;115.53;43.63;;;-0.40;99.90;;;;;;4372163;28;659609;-64
2021/12/12 03:23:36;;;;;;;121.80;45.17;;;-0.40;99.90;;;;;;4367989;28;659409;-64
2021/12/12 03:26:24;;;;;;;119.90;45.70;;;-0.40;99.90;;;;;;4394305;28;660010;-63
2021/12/12 03:29:13;;;;;;;120.90;46.00;;;-0.40;99.90;;;;;;4375687;28;661682;-64
2021/12/12 03:32:02;;;;;;;133.50;47.72;;;-0.40;99.90;;;;;;4383272;28;659680;-64
2021/12/12 03:34:53;;;;;;;122.27;46.13;;;-0.40;99.90;;;;;;4394438;28;659947;-65
2021/12/12 03:37:41;;;;;;;125.88;45.67;;;-0.40;99.90;;;;;;4383087;28;660155;-65
2021/12/12 03:40:31;;;;;;;127.67;44.40;;;-0.40;99.90;;;;;;4394200;28;660208;-64
2021/12/12 03:43:19;;;;;;;115.53;42.87;;;-0.40;99.90;;;;;;4368477;28;662032;-64
2021/12/12 03:46:10;;;;;;;120.93;44.92;;;-0.50;99.90;;;;;;4374233;28;659687;-64
2021/12/12 03:48:58;;;;;;;120.87;44.50;;;-0.50;99.90;;;;;;4387128;28;660179;-63
2021/12/12 03:51:46;;;;;;;124.30;42.63;;;-0.50;99.90;;;;;;4382619;28;660146;-64
2021/12/12 03:54:34;;;;;;;131.00;46.37;;;-0.50;99.90;;;;;;4388781;28;659873;-64
2021/12/12 03:57:22;;;;;;;123.57;43.87;;;-0.60;99.90;;;;;;4383033;28;659749;-63
2021/12/12 04:00:12;;;;;;;116.87;44.03;;;-0.60;99.90;;;;;;4392106;28;659544;-64
2021/12/12 04:03:01;;;;;;;116.17;44.23;;;-0.60;99.90;;;;;;4377695;28;659662;-63
2021/12/12 04:05:51;;;;;;;117.03;41.97;;;-0.60;99.90;;;;;;4347294;28;660128;-63
2021/12/12 04:08:40;;;;;;;116.37;43.03;;;-0.70;99.90;;;;;;4375492;28;659954;-64
2021/12/12 04:11:30;;;;;;;115.77;42.63;;;-0.60;99.90;;;;;;4346278;28;660972;-63
2021/12/12 04:14:18;;;;;;;114.35;43.97;;;-0.60;99.90;;;;;;4374534;28;660579;-64
2021/12/12 04:17:13;;;;;;;119.13;43.23;;;-0.60;99.90;;;;;;4378630;28;659983;-65
2021/12/12 04:20:08;;;;;;;108.73;42.83;;;-0.60;99.90;;;;;;4359312;28;659793;-64
2021/12/12 04:22:56;;;;;;;121.20;43.07;;;-0.60;99.90;;;;;;4357247;28;659771;-63
2021/12/12 04:25:43;;;;;;;125.03;45.20;;;-0.60;99.90;;;;;;4389300;28;660764;-64
2021/12/12 04:28:31;;;;;;;119.20;45.53;;;-0.50;99.90;;;;;;4368754;28;659709;-64
2021/12/12 04:31:19;;;;;;;122.83;44.80;;;-0.50;99.90;;;;;;4387951;28;659923;-64
2021/12/12 04:34:07;;;;;;;114.43;42.93;;;-0.50;99.90;;;;;;4378408;28;659665;-64
2021/12/12 04:36:56;;;;;;;130.03;46.57;;;-0.50;99.90;;;;;;4402163;28;659469;-64
2021/12/12 04:39:48;;;;;;;114.83;42.23;;;-0.40;99.90;;;;;;4359634;28;659567;-64
2021/12/12 04:42:37;;;;;;;121.13;43.90;;;-0.50;99.90;;;;;;4353415;28;659575;-64
2021/12/12 04:45:32;;;;;;;121.53;45.47;;;-0.50;99.90;;;;;;4383373;28;660225;-64
2021/12/12 04:51:28;;;;;;;121.77;45.17;;;-0.50;99.90;;;;;;4356154;28;660348;-64
2021/12/12 04:54:26;;;;;;;111.63;42.57;;;-0.50;99.90;;;;;;4370212;28;660007;-64
2021/12/12 04:57:17;;;;;;;121.60;42.83;;;-0.50;99.90;;;;;;4377630;28;659862;-64
2021/12/12 05:00:08;;;;;;;123.28;47.03;;;-0.50;99.90;;;;;;4378327;28;659387;-65
2021/12/12 05:02:58;;;;;;;118.17;45.13;;;-0.50;99.90;;;;;;4394640;28;660096;-65
2021/12/12 05:05:51;;;;;;;120.10;43.47;;;-0.50;99.90;;;;;;4369034;28;660104;-64
2021/12/12 05:08:41;;;;;;;122.68;44.45;;;-0.50;99.90;;;;;;4366932;28;661068;-64
2021/12/12 05:11:33;;;;;;;119.77;44.27;;;-0.50;99.90;;;;;;4371885;28;660521;-64
2021/12/12 05:14:23;;;;;;;110.03;42.73;;;-0.60;99.90;;;;;;4356996;28;659549;-65
2021/12/12 05:17:12;;;;;;;117.07;43.30;;;-0.60;99.90;;;;;;4387084;28;659814;-64
2021/12/12 05:20:01;;;;;;;95.57;38.07;;;-0.60;99.90;;;;;;4405084;28;659532;-64
2021/12/12 05:22:50;;;;;;;100.70;39.40;;;-0.60;99.90;;;;;;4377558;28;659612;-64
2021/12/12 05:25:41;;;;;;;92.70;37.83;;;-0.50;99.90;;;;;;4376265;28;660173;-64
2021/12/12 05:28:32;;;;;;;96.80;37.03;;;-0.50;99.90;;;;;;4378429;28;659051;-64
2021/12/12 05:31:20;;;;;;;99.80;37.17;;;-0.50;99.90;;;;;;4360625;28;658617;-64
2021/12/12 05:34:08;;;;;;;94.00;36.50;;;-0.50;99.90;;;;;;4350796;28;660527;-64
2021/12/12 05:36:57;;;;;;;98.73;37.33;;;-0.50;99.90;;;;;;4358028;28;658794;-65
2021/12/12 05:39:50;;;;;;;93.83;36.73;;;-0.50;99.90;;;;;;4386052;28;658785;-64
2021/12/12 05:42:39;;;;;;;101.70;38.17;;;-0.50;99.90;;;;;;4345591;28;661314;-64
2021/12/12 05:45:32;;;;;;;96.27;37.80;;;-0.40;99.90;;;;;;4366883;28;661577;-64
2021/12/12 05:48:22;;;;;;;97.53;37.57;;;-0.40;99.90;;;;;;4375980;28;658958;-64
2021/12/12 05:51:10;;;;;;;90.10;36.30;;;-0.40;99.90;;;;;;4375287;28;659042;-64
2021/12/12 05:54:00;;;;;;;91.90;35.63;;;-0.40;99.90;;;;;;4381565;28;660171;-64
2021/12/12 05:56:49;;;;;;;103.30;37.23;;;-0.40;99.90;;;;;;4365030;28;659257;-64
2021/12/12 05:59:41;;;;;;;91.80;36.22;;;-0.40;99.90;;;;;;4362960;28;660172;-64
2021/12/12 06:02:32;;;;;;;98.32;38.05;;;-0.40;99.90;;;;;;4362556;28;659245;-64
2021/12/12 06:05:21;;;;;;;99.63;37.40;;;-0.40;99.90;;;;;;4359133;28;658694;-64
2021/12/12 06:08:10;;;;;;;90.03;35.37;;;-0.40;99.90;;;;;;4378933;28;660491;-64
2021/12/12 06:10:58;;;;;;;96.40;36.67;;;-0.40;99.90;;;;;;4379944;28;659847;-64
2021/12/12 06:13:49;;;;;;;99.77;37.13;;;-0.40;99.90;;;;;;4379111;28;658724;-64
2021/12/12 06:16:37;;;;;;;96.43;37.50;;;-0.40;99.90;;;;;;4363697;28;658578;-64
2021/12/12 06:19:31;;;;;;;91.53;37.25;;;-0.40;99.90;;;;;;4391362;28;659445;-64
2021/12/12 06:22:22;;;;;;;91.93;35.42;;;-0.40;99.90;;;;;;4372552;28;658545;-64
2021/12/12 06:25:12;;;;;;;93.00;34.65;;;-0.50;99.90;;;;;;4368606;28;659335;-65
2021/12/12 06:28:01;;;;;;;93.20;36.23;;;-0.50;99.90;;;;;;4401442;28;658542;-64
2021/12/12 06:30:50;;;;;;;90.40;37.17;;;-0.50;99.90;;;;;;4364796;28;658410;-64
2021/12/12 06:33:41;;;;;;;89.67;36.40;;;-0.50;99.90;;;;;;4377198;28;659504;-64
2021/12/12 06:36:39;;;;;;;92.00;36.33;;;-0.50;99.90;;;;;;4375305;28;659022;-64
2021/12/12 06:39:31;;;;;;;89.23;36.07;;;-0.50;99.90;;;;;;4353079;28;659585;-64
2021/12/12 06:42:21;;;;;;;87.67;35.30;;;-0.50;99.90;;;;;;4374018;28;660222;-64
2021/12/12 06:45:10;;;;;;;91.03;35.93;;;-0.50;99.90;;;;;;4379141;28;659200;-64
2021/12/12 06:47:58;;;;;;;90.73;35.93;;;-0.50;99.90;;;;;;4379766;28;659777;-64
2021/12/12 06:50:47;;;;;;;91.63;35.87;;;-0.50;99.90;;;;;;4355630;28;658794;-65
2021/12/12 06:53:38;;;;;;;91.43;36.50;;;-0.50;99.90;;;;;;4390200;28;658948;-64
2021/12/12 06:56:26;;;;;;;86.00;35.10;;;-0.50;99.90;;;;;;4345958;28;660077;-65
2021/12/12 06:59:13;;;;;;;90.17;35.97;;;-0.50;99.90;;;;;;4403706;28;659664;-64
2021/12/12 07:02:01;;;;;;;93.53;34.67;;;-0.50;99.90;;;;;;4363399;28;658737;-64
2021/12/12 07:04:48;;;;;;;88.53;35.20;;;-0.50;99.90;;;;;;4383615;28;659221;-64
2021/12/12 07:07:36;;;;;;;88.00;35.30;;;-0.50;99.90;;;;;;4375762;28;658746;-64
2021/12/12 07:10:27;;;;;;;82.03;33.50;;;-0.50;99.90;;;;;;4395064;28;660016;-64
2021/12/12 07:13:14;;;;;;;89.37;34.23;;;-0.50;99.90;;;;;;4369914;28;659275;-64
2021/12/12 07:16:03;;;;;;;93.13;35.23;;;-0.60;99.90;;;;;;4375071;28;659967;-64
2021/12/12 07:18:51;;;;;;;91.57;36.00;;;-0.50;99.90;;;;;;4386278;28;658383;-64
2021/12/12 07:21:39;;;;;;;84.85;35.25;;;-0.50;99.90;;;;;;4384894;28;660610;-64
2021/12/12 07:24:29;;;;;;;86.93;35.00;;;-0.50;99.90;;;;;;4378898;28;658917;-64
2021/12/12 07:27:19;;;;;;;90.07;34.80;;;-0.50;99.90;;;;;;4372277;28;658946;-65
2021/12/12 07:30:07;;;;;;;81.90;34.33;;;-0.50;99.90;;;;;;4360131;28;658768;-65
2021/12/12 07:32:55;;;;;;;95.03;35.13;;;-0.50;99.90;;;;;;4406677;28;658356;-64
2021/12/12 07:35:43;;;;;;;86.20;35.67;;;-0.60;99.90;;;;;;4370587;28;660322;-64
2021/12/12 07:38:31;;;;;;;83.00;35.20;;;-0.60;99.90;;;;;;4370282;28;658854;-64
2021/12/12 07:41:19;;;;;;;96.57;36.33;;;-0.50;99.90;;;;;;4363494;28;660061;-64
2021/12/12 07:44:11;;;;;;;99.90;37.07;;;-0.50;99.90;;;;;;4354322;28;658851;-65
2021/12/12 07:46:59;;;;;;;87.27;35.97;;;-0.50;99.90;;;;;;4356300;28;659934;-64
2021/12/12 07:49:48;;;;;;;89.97;35.90;;;-0.50;99.90;;;;;;4348166;28;658295;-64
2021/12/12 07:52:36;;;;;;;97.87;38.93;;;-0.40;99.90;;;;;;4365411;28;658639;-65
2021/12/12 07:55:24;;;;;;;90.57;37.13;;;-0.20;99.90;;;;;;4391452;28;658954;-64
2021/12/12 07:58:13;;;;;;;94.07;38.60;;;-0.20;99.90;;;;;;4375150;28;659118;-69
2021/12/12 08:01:07;;;;;;;95.13;40.67;;;-0.10;99.90;;;;;;4378906;28;658381;-69
2021/12/12 08:03:56;;;;;;;106.07;45.00;;;-0.10;99.90;;;;;;4371410;28;658929;-68
2021/12/12 08:06:44;;;;;;;111.33;44.93;;;-0.10;99.90;;;;;;4359256;28;661320;-68
2021/12/12 08:09:32;;;;;;;117.43;47.13;;;0.00;99.90;;;;;;4358506;28;659562;-69
2021/12/12 08:12:20;;;;;;;121.20;46.83;;;0.00;99.90;;;;;;4389807;28;658654;-69
2021/12/12 08:15:10;;;;;;;126.47;48.80;;;0.00;99.90;;;;;;4369661;28;659706;-68
2021/12/12 08:18:00;;;;;;;115.53;45.57;;;0.10;99.90;;;;;;4350983;28;659157;-69
2021/12/12 08:20:49;;;;;;;110.43;46.30;;;0.30;99.90;;;;;;4356633;28;660458;-69
2021/12/12 08:23:37;;;;;;;114.40;45.47;;;0.60;99.90;;;;;;4353278;28;658994;-69
2021/12/12 08:26:25;;;;;;;114.77;46.00;;;0.80;99.90;;;;;;4376366;28;658410;-69
2021/12/12 08:29:13;;;;;;;111.13;46.60;;;1.10;99.90;;;;;;4360322;28;658409;-69
2021/12/12 08:32:03;;;;;;;110.53;44.17;;;1.30;99.90;;;;;;4373272;28;659248;-69
2021/12/12 08:34:53;;;;;;;103.60;43.37;;;1.50;99.90;;;;;;4374988;28;658240;-69
2021/12/12 08:37:41;;;;;;;100.80;42.08;;;1.60;99.90;;;;;;4380183;28;658609;-69
2021/12/12 08:40:31;;;;;;;94.60;41.70;;;1.70;99.90;;;;;;4391080;28;659206;-69
2021/12/12 08:43:19;;;;;;;100.47;42.07;;;1.90;99.90;;;;;;4366925;28;658167;-69
2021/12/12 08:46:08;;;;;;;87.27;39.73;;;2.10;99.90;;;;;;4383238;28;658979;-69
2021/12/12 08:48:56;;;;;;;88.67;40.03;;;2.30;99.90;;;;;;4377434;28;657857;-69
2021/12/12 08:51:47;;;;;;;85.63;34.67;;;2.80;99.90;;;;;;4403166;28;657988;-63
2021/12/12 08:54:36;;;;;;;86.50;36.53;;;3.00;99.90;;;;;;4350308;28;658071;-64
2021/12/12 08:57:33;;;;;;;76.47;33.87;;;3.30;99.90;;;;;;4360506;28;658647;-64
2021/12/12 09:00:22;;;;;;;80.17;35.37;;;3.90;99.90;;;;;;4353166;28;658577;-65
2021/12/12 09:03:10;;;;;;;77.60;36.00;;;4.90;99.90;;;;;;4389356;28;658236;-64
2021/12/12 09:05:57;;;;;;;80.53;34.33;;;5.70;99.90;;;;;;4374273;28;658281;-63
2021/12/12 09:08:51;;;;;;;68.20;33.30;;;6.50;99.90;;;;;;4391904;28;657919;-65
2021/12/12 09:11:41;;;;;;;72.07;33.40;;;7.50;99.90;;;;;;4373081;28;658731;-65
2021/12/12 09:14:32;;;;;;;59.40;29.20;;;8.20;99.90;;;;;;4356358;28;659478;-65
2021/12/12 09:17:22;;;;;;;67.40;32.40;;;8.70;94.10;;;;;;4354726;28;657913;-65
2021/12/12 09:20:15;;;;;;;61.90;32.20;;;8.80;96.00;;;;;;4349706;28;657931;-66
2021/12/12 09:23:07;;;;;;;65.87;32.33;;;9.30;92.20;;;;;;4354016;28;658906;-65
2021/12/12 09:25:58;;;;;;;65.53;32.00;;;9.80;85.30;;;;;;4371448;28;657421;-64
2021/12/12 09:28:49;;;;;;;61.90;31.73;;;10.60;71.80;;;;;;4358375;28;658075;-66
2021/12/12 09:31:40;;;;;;;54.03;27.40;;;11.10;66.60;;;;;;4341818;28;659119;-65
2021/12/12 09:34:32;;;;;;;62.27;30.17;;;10.80;60.90;;;;;;4364647;28;661277;-66
2021/12/12 09:37:23;;;;;;;56.40;28.17;;;10.70;62.30;;;;;;4358994;28;659257;-65
2021/12/12 09:40:18;;;;;;;48.70;26.60;;;10.80;61.90;;;;;;4349964;28;658853;-66
2021/12/12 09:43:17;;;;;;;47.70;25.70;;;11.50;59.40;;;;;;4385552;28;659466;-66
2021/12/12 09:46:08;;;;;;;52.37;25.27;;;12.00;56.20;;;;;;4369522;28;660564;-64
2021/12/12 09:53:06;;;;;;;42.47;21.70;;;12.70;54.90;;;;;;4334395;28;659717;-65
2021/12/12 09:55:55;;;;;;;42.37;21.60;;;12.90;51.60;;;;;;4304419;29;659413;-65
2021/12/12 09:58:48;;;;;;;40.50;21.40;;;12.70;49.50;;;;;;4309509;28;660479;-64
2021/12/12 10:01:40;;;;;;;40.13;21.13;;;12.60;51.70;;;;;;4286127;28;659540;-66
2021/12/12 10:04:29;;;;;;;41.07;20.37;;;12.50;48.90;;;;;;4292230;28;659611;-71
2021/12/12 10:07:21;;;;;;;39.70;20.67;;;11.70;52.50;;;;;;4311223;28;660359;-69
2021/12/12 10:10:11;;;;;;;43.40;20.67;;;11.00;52.40;;;;;;4297612;28;660123;-71
2021/12/12 10:13:02;;;;;;;46.60;21.73;;;10.50;56.90;;;;;;4313077;28;658271;-71
2021/12/12 10:15:54;;;;;;;50.30;22.50;;;10.70;57.60;;;;;;4313755;28;658482;-71
2021/12/12 10:18:49;;;;;;;44.43;22.37;;;11.20;56.70;;;;;;4305751;28;658650;-71
2021/12/12 10:21:40;;;;;;;44.50;23.03;;;11.50;57.10;;;;;;4292037;28;659489;-71
2021/12/12 10:24:29;;;;;;;40.43;21.20;;;11.70;54.80;;;;;;4300638;28;658946;-72
2021/12/12 10:27:21;;;;;;;44.43;22.67;;;11.80;54.30;;;;;;4303742;28;658849;-71
2021/12/12 10:30:11;;;;;;;43.23;22.83;;;11.80;55.20;;;;;;4299950;28;660492;-70
2021/12/12 10:33:07;;;;;;;43.37;22.20;;;11.80;54.10;;;;;;4300016;28;660035;-70
2021/12/12 10:35:59;;;;;;;43.50;22.77;;;11.40;52.10;;;;;;4335833;28;659172;-71
2021/12/12 10:38:54;;;;;;;48.10;24.37;;;11.00;55.10;;;;;;4356387;28;659138;-71
2021/12/12 10:41:45;;;;;;;54.33;25.23;;;10.90;56.10;;;;;;4336964;28;659227;-71
2021/12/12 10:44:36;;;;;;;50.08;23.67;;;10.60;56.20;;;;;;4368762;28;659412;-70
2021/12/12 10:47:29;;;;;;;56.03;26.87;;;10.20;56.50;;;;;;4367735;28;659656;-70
2021/12/12 10:50:20;;;;;;;57.90;25.77;;;9.50;62.90;;;;;;4322550;28;659418;-70
2021/12/12 10:53:10;;;;;;;56.10;26.43;;;9.20;64.80;;;;;;4343456;28;658517;-70
2021/12/12 10:56:00;;;;;;;55.73;25.70;;;8.80;69.70;;;;;;4354504;28;658915;-69
2021/12/12 10:58:48;;;;;;;63.93;26.97;;;8.50;77.50;;;;;;4371424;28;659685;-70
2021/12/12 11:01:38;;;;;;;63.07;27.47;;;8.40;82.00;;;;;;4373083;28;657540;-69
2021/12/12 11:04:34;;;;;;;55.37;25.73;;;8.40;86.20;;;;;;4372793;28;657490;-70
2021/12/12 11:07:25;;;;;;;56.17;24.20;;;8.50;86.70;;;;;;4344121;28;658325;-70
2021/12/12 11:10:16;;;;;;;51.83;24.67;;;8.80;86.60;;;;;;4351018;28;658877;-69
2021/12/12 11:13:10;;;;;;;50.83;23.30;;;9.10;72.70;;;;;;4354952;28;658879;-70
2021/12/12 11:16:01;;;;;;;52.05;23.80;;;8.70;75.20;;;;;;4333967;28;657461;-69
2021/12/12 11:18:50;;;;;;;48.93;21.67;;;8.30;86.50;;;;;;4353999;28;658208;-69
2021/12/12 11:21:39;;;;;;;43.80;21.23;;;8.40;81.70;;;;;;4377461;28;658856;-70
2021/12/12 11:24:31;;;;;;;35.90;17.40;;;8.40;80.80;;;;;;4370334;28;657853;-69
2021/12/12 11:27:21;;;;;;;34.07;14.80;;;7.80;89.90;;;;;;4356071;28;657937;-69
2021/12/12 11:30:11;;;;;;;31.30;14.90;;;8.40;76.40;;;;;;4355137;28;658815;-70
2021/12/12 11:32:59;;;;;;;28.90;13.97;;;9.00;80.20;;;;;;4367478;28;658831;-70
2021/12/12 11:35:49;;;;;;;30.40;12.83;;;9.50;73.00;;;;;;4365196;28;658105;-70
2021/12/12 11:38:39;;;;;;;29.93;13.23;;;9.90;68.30;;;;;;4360267;28;657520;-70
2021/12/12 11:41:33;;;;;;;24.73;12.77;;;10.10;62.50;;;;;;4361037;28;658406;-69
2021/12/12 11:44:23;;;;;;;29.33;12.40;;;10.20;62.30;;;;;;4341599;28;659268;-69
2021/12/12 11:47:15;;;;;;;25.80;12.80;;;10.30;59.40;;;;;;4375795;28;658620;-70
2021/12/12 11:50:06;;;;;;;27.60;12.17;;;10.30;59.30;;;;;;4370238;28;660039;-70
2021/12/12 11:52:56;;;;;;;25.77;11.57;;;10.10;58.10;;;;;;4363898;28;659951;-71
2021/12/12 11:55:46;;;;;;;24.40;11.43;;;9.80;60.20;;;;;;4371081;28;660041;-70
2021/12/12 11:58:38;;;;;;;23.17;10.83;;;9.80;63.50;;;;;;4356205;28;657763;-70
2021/12/12 12:01:31;;;;;;;25.83;11.90;;;9.60;59.40;;;;;;4363150;28;657291;-70
2021/12/12 12:04:24;;;;;;;24.33;10.77;;;8.90;60.50;;;;;;4373532;28;658653;-70
2021/12/12 12:07:15;;;;;;;24.53;11.27;;;8.80;62.80;;;;;;4367164;28;657938;-70
2021/12/12 12:10:07;;;;;;;27.87;11.93;;;8.50;63.20;;;;;;4369219;28;658314;-70
2021/12/12 12:13:10;;;;;;;29.10;12.73;;;8.30;64.80;;;;;;4370520;28;658548;-69
2021/12/12 12:16:01;;;;;;;27.90;12.67;;;7.60;74.50;;;;;;4349267;28;658040;-69
2021/12/12 12:18:52;;;;;;;25.57;12.33;;;7.70;82.90;;;;;;4369705;28;658788;-69
2021/12/12 12:21:46;;;;;;;32.83;13.83;;;8.30;75.70;;;;;;4368456;28;658928;-69
2021/12/12 12:24:41;;;;;;;27.90;13.27;;;8.90;71.70;;;;;;4370936;28;658369;-69
2021/12/12 12:27:34;;;;;;;28.00;12.57;;;9.50;64.70;;;;;;4364749;28;658647;-70
2021/12/12 12:31:18;;;;;;;28.37;13.57;;;9.90;63.70;;;;;;4353997;28;657908;-69
2021/12/12 12:34:45;;;;;;;29.20;13.15;;;11.20;57.60;;;;;;4266834;28;657940;-69
2021/12/12 12:38:10;;;;;;;30.10;13.20;;;12.00;51.70;;;;;;4293118;29;659008;-70
2021/12/12 12:41:34;;;;;;;28.87;12.73;;;13.00;49.90;;;;;;4274845;29;659224;-70
2021/12/12 12:45:13;;;;;;;27.70;13.10;;;12.70;47.90;;;;;;4293101;28;659606;-69
2021/12/12 12:48:37;;;;;;;29.60;13.57;;;12.40;46.90;;;;;;4297899;28;658557;-69
2021/12/12 12:51:51;;;;;;;27.27;13.23;;;13.40;46.70;;;;;;4313313;28;659215;-69
2021/12/12 12:54:40;;;;;;;28.00;13.60;;;13.60;44.10;;;;;;4324667;28;659186;-70
2021/12/12 12:57:28;;;;;;;32.30;15.13;;;13.80;43.60;;;;;;4332238;28;658966;-69
2021/12/12 13:00:17;;;;;;;32.87;15.30;;;14.00;43.30;;;;;;4323823;28;658700;-69
2021/12/12 13:03:20;;;;;;;33.93;14.80;;;14.40;43.50;;;;;;4339349;28;658661;-70
2021/12/12 13:06:46;;;;;;;33.37;15.60;;;14.40;42.60;;;;;;4296800;28;659374;-70
2021/12/12 13:09:45;;;;;;;35.77;16.73;;;14.20;43.50;;;;;;4304775;28;659449;-74
2021/12/12 13:13:00;;;;;;;34.00;16.63;;;14.30;41.50;;;;;;4334665;28;659832;-74
2021/12/12 13:15:50;;;;;;;34.63;16.27;;;14.80;41.90;;;;;;4317849;28;659056;-75
2021/12/12 13:18:45;;;;;;;38.67;16.77;;;15.00;42.10;;;;;;4369247;28;659904;-74
2021/12/12 13:21:36;;;;;;;36.80;16.60;;;15.30;41.40;;;;;;4349548;28;659761;-75
2021/12/12 13:24:27;;;;;;;35.23;17.03;;;15.30;40.80;;;;;;4353343;28;659363;-73
2021/12/12 13:27:29;;;;;;;37.17;16.87;;;15.20;41.00;;;;;;4354249;28;658917;-74
2021/12/12 13:30:27;;;;;;;34.00;15.63;;;15.20;40.30;;;;;;4346072;28;658765;-73
2021/12/12 13:33:25;;;;;;;35.87;16.40;;;14.90;40.50;;;;;;4348364;28;658451;-73
2021/12/12 13:36:28;;;;;;;38.73;17.30;;;14.90;40.50;;;;;;4331172;28;660431;-74
2021/12/12 13:39:22;;;;;;;34.80;16.80;;;14.50;40.80;;;;;;4341019;28;658866;-74
2021/12/12 13:42:15;;;;;;;34.57;16.07;;;14.40;41.80;;;;;;4353910;28;659007;-73
2021/12/12 13:45:10;;;;;;;39.63;18.43;;;14.40;41.40;;;;;;4331079;28;658963;-72
2021/12/12 13:48:23;;;;;;;44.03;18.90;;;14.20;41.30;;;;;;4329788;28;659314;-73
2021/12/12 13:51:19;;;;;;;37.10;17.50;;;13.60;41.70;;;;;;4334090;28;658825;-73
2021/12/12 13:54:16;;;;;;;40.27;17.33;;;12.20;42.80;;;;;;4339932;28;660437;-73
2021/12/12 13:57:10;;;;;;;40.47;16.97;;;11.30;45.10;;;;;;4369144;28;659394;-73
2021/12/12 14:00:08;;;;;;;37.27;16.83;;;10.00;46.80;;;;;;4346758;28;660024;-73
2021/12/12 14:02:59;;;;;;;37.90;16.17;;;8.70;50.10;;;;;;4358269;28;659233;-73
2021/12/12 14:05:48;;;;;;;36.93;16.03;;;7.60;53.30;;;;;;4373066;28;657539;-74
2021/12/12 14:08:40;;;;;;;42.88;17.73;;;6.60;56.30;;;;;;4382214;28;658285;-73
2021/12/12 14:11:30;;;;;;;37.50;16.63;;;5.80;60.60;;;;;;4372570;28;658812;-72
2021/12/12 14:14:21;;;;;;;33.63;15.00;;;5.10;66.40;;;;;;4364051;28;658523;-73
2021/12/12 14:17:15;;;;;;;40.20;16.10;;;4.50;78.30;;;;;;4373051;28;658865;-73
2021/12/12 14:20:04;;;;;;;37.27;16.20;;;3.90;96.10;;;;;;4382459;28;659016;-74
2021/12/12 14:22:53;;;;;;;39.17;16.33;;;3.40;99.90;;;;;;4384987;28;658444;-73
2021/12/12 14:25:48;;;;;;;43.37;15.03;;;3.00;99.90;;;;;;4373654;28;658295;-74
2021/12/12 14:28:38;;;;;;;43.77;16.33;;;2.60;99.90;;;;;;4348685;28;658068;-74
2021/12/12 14:31:28;;;;;;;39.63;16.23;;;2.20;99.90;;;;;;4357100;28;657804;-73
2021/12/12 14:34:19;;;;;;;43.47;14.52;;;2.00;99.90;;;;;;4376646;28;658044;-74